Time;durP1;ratioP1;P1;durP2;ratioP2;P2;SDS_P1;SDS_P2;PMS_P1;PMS_P2;Temp;Humidity;BMP_temperature;BMP_pressure;BME280_temperature;BME280_humidity;BME280_pressure;Samples;Min_cycle;Max_cycle;Signal;HPM_P1;HPM_P2
2022/12/19 00:01:25;;;;;;;;;;;;;;;17.28;38.28;101702.31;5134503;27;20012;-58
2022/12/19 00:03:53;;;;;;;;;;;;;;;17.28;38.20;101692.13;5153058;27;19933;-58
2022/12/19 00:06:19;;;;;;;;;;;;;;;17.28;38.38;101688.53;5173117;27;19958;-57
2022/12/19 00:08:45;;;;;;;;;;;;;;;17.28;38.37;101699.56;5155597;27;20394;-57
2022/12/19 00:11:11;;;;;;;;;;;;;;;17.28;38.34;101688.53;5117514;27;20015;-58
2022/12/19 00:13:37;;;;;;;;;;;;;;;17.29;38.10;101687.44;5132400;28;19988;-58
2022/12/19 00:16:07;;;;;;;;;;;;;;;17.28;38.28;101691.28;5114463;28;20393;-58
2022/12/19 00:18:33;;;;;;;;;;;;;;;17.29;38.40;101690.19;5132339;28;19966;-58
2022/12/19 00:21:00;;;;;;;;;;;;;;;17.26;38.42;101687.94;5131896;27;19950;-58
2022/12/19 00:23:26;;;;;;;;;;;;;;;17.28;38.36;101688.53;5132119;28;19924;-58
2022/12/19 00:25:51;;;;;;;;;;;;;;;17.28;38.53;101681.13;5113616;28;19978;-58
2022/12/19 00:28:17;;;;;;;;;;;;;;;17.25;38.22;101676.09;5132192;28;19928;-58
2022/12/19 00:30:44;;;;;;;;;;;;;;;17.26;38.37;101669.50;5141801;27;19930;-58
2022/12/19 00:33:10;;;;;;;;;;;;;;;17.25;38.40;101665.09;5115385;28;19923;-58
2022/12/19 00:35:35;;;;;;;;;;;;;;;17.26;38.38;101668.66;5132098;28;19930;-57
2022/12/19 00:38:01;;;;;;;;;;;;;;;17.26;38.37;101647.47;5131567;28;19949;-57
2022/12/19 00:40:27;;;;;;;;;;;;;;;17.27;38.38;101645.56;5113535;28;20014;-57
2022/12/19 00:42:52;;;;;;;;;;;;;;;17.28;38.52;101652.75;5131867;27;19930;-58
2022/12/19 00:45:19;;;;;;;;;;;;;;;17.26;38.53;101644.72;5131069;27;19923;-58
2022/12/19 00:47:44;;;;;;;;;;;;;;;17.26;38.37;101644.72;5131950;28;19924;-58
2022/12/19 00:50:10;;;;;;;;;;;;;;;17.26;38.44;101657.66;5131799;27;20334;-58
2022/12/19 00:52:35;;;;;;;;;;;;;;;17.27;38.32;101653.81;5131170;27;19923;-58
2022/12/19 00:55:01;;;;;;;;;;;;;;;17.26;38.57;101643.91;5131448;28;19924;-58
2022/12/19 00:57:29;;;;;;;;;;;;;;;17.27;38.56;101637.28;5131893;28;19930;-58
2022/12/19 00:59:54;;;;;;;;;;;;;;;17.26;38.23;101639.22;5133850;27;19924;-58
2022/12/19 01:02:20;;;;;;;;;;;;;;;17.26;38.53;101630.97;5140512;27;20283;-58
2022/12/19 01:04:45;;;;;;;;;;;;;;;17.27;38.52;101629.03;5155339;27;19935;-57
2022/12/19 01:07:11;;;;;;;;;;;;;;;17.28;38.36;101630.72;5170750;27;19926;-58
2022/12/19 01:09:37;;;;;;;;;;;;;;;17.27;38.45;101629.03;5152265;27;19957;-57
2022/12/19 01:12:46;;;;;;;;;;;;;;;17.26;38.44;101613.63;5152467;27;19934;-58
2022/12/19 01:14:52;;;;;;;;;;;;;;;17.26;38.44;101622.69;5136827;27;19930;-58
2022/12/19 01:17:17;;;;;;;;;;;;;;;17.25;38.39;101600.94;5133719;27;19966;-58
2022/12/19 01:19:43;;;;;;;;;;;;;;;17.26;38.39;101600.69;5152211;27;19983;-58
2022/12/19 01:22:10;;;;;;;;;;;;;;;17.27;38.48;101609.78;5151950;27;20294;-58
2022/12/19 01:24:36;;;;;;;;;;;;;;;17.26;38.39;101608.94;5133033;27;19923;-58
2022/12/19 01:27:02;;;;;;;;;;;;;;;17.26;38.41;101600.69;5151999;27;19938;-58
2022/12/19 01:29:27;;;;;;;;;;;;;;;17.26;38.24;101608.94;5151688;27;19923;-58
2022/12/19 01:31:53;;;;;;;;;;;;;;;17.26;38.42;101611.69;5151983;27;20307;-58
2022/12/19 01:34:18;;;;;;;;;;;;;;;17.27;38.50;101612.53;5151720;27;19943;-57
2022/12/19 01:36:44;;;;;;;;;;;;;;;17.27;38.58;101618.03;5151800;27;19983;-57
2022/12/19 01:39:09;;;;;;;;;;;;;;;17.25;38.38;101601.78;5151685;27;19968;-58
2022/12/19 01:41:35;;;;;;;;;;;;;;;17.26;38.62;101588.84;5151627;27;19929;-58
2022/12/19 01:44:02;;;;;;;;;;;;;;;17.26;38.36;101595.19;5148556;27;19924;-58
2022/12/19 01:46:33;;;;;;;;;;;;;;;17.26;38.45;101588.84;5131225;28;20158;-58
2022/12/19 01:48:59;;;;;;;;;;;;;;;17.26;38.60;101588.84;5112620;28;19972;-58
2022/12/19 01:51:25;;;;;;;;;;;;;;;17.26;38.21;101589.66;5132751;27;19927;-58
2022/12/19 01:53:53;;;;;;;;;;;;;;;17.26;38.50;101581.41;5151515;27;20463;-58
2022/12/19 01:56:23;;;;;;;;;;;;;;;17.26;38.25;101577.81;5133034;27;19959;-58
2022/12/19 01:58:49;;;;;;;;;;;;;;;17.25;38.41;101563.22;5132006;27;20426;-57
2022/12/19 02:01:14;;;;;;;;;;;;;;;17.27;38.36;101560.22;5151497;27;20006;-58
2022/12/19 02:03:40;;;;;;;;;;;;;;;17.26;38.59;101556.63;5150964;27;20390;-57
2022/12/19 02:06:06;;;;;;;;;;;;;;;17.26;38.41;101544.78;5150820;27;19930;-58
2022/12/19 02:08:31;;;;;;;;;;;;;;;17.24;38.47;101547.81;5151243;27;20304;-58
2022/12/19 02:10:58;;;;;;;;;;;;;;;17.25;38.60;101541.22;5151205;27;19977;-58
2022/12/19 02:13:24;;;;;;;;;;;;;;;17.26;38.35;101531.84;5151448;27;19927;-57
2022/12/19 02:15:53;;;;;;;;;;;;;;;17.25;38.42;101532.97;5150960;27;19927;-58
2022/12/19 02:18:29;;;;;;;;;;;;;;;17.26;38.41;101542.88;5150937;27;19979;-57
2022/12/19 02:21:15;;;;;;;;;;;;;;;17.26;38.46;101531.03;5151247;27;19935;-58
2022/12/19 02:23:46;;;;;;;;;;;;;;;17.24;38.50;101520.28;5135314;27;19962;-57
2022/12/19 02:26:18;;;;;;;;;;;;;;;17.25;38.49;101521.94;5150644;27;19962;-57
2022/12/19 02:28:49;;;;;;;;;;;;;;;17.25;38.37;101512.84;5150888;27;19930;-58
2022/12/19 02:31:19;;;;;;;;;;;;;;;17.26;38.23;101503.50;5149900;27;20185;-58
2022/12/19 02:33:47;;;;;;;;;;;;;;;17.24;38.31;101491.94;5132392;27;19935;-57
2022/12/19 02:36:17;;;;;;;;;;;;;;;17.25;38.36;101479.81;5151202;27;19979;-58
2022/12/19 02:38:51;;;;;;;;;;;;;;;17.25;38.50;101485.31;5151317;27;20194;-58
2022/12/19 02:41:42;;;;;;;;;;;;;;;17.25;38.24;101466.06;5150587;27;19958;-58
2022/12/19 02:44:09;;;;;;;;;;;;;;;17.25;38.38;101466.06;5146857;27;19978;-58
2022/12/19 02:46:35;;;;;;;;;;;;;;;17.24;38.59;101465.22;5130100;28;19935;-57
2022/12/19 02:49:00;;;;;;;;;;;;;;;17.25;38.51;101472.41;5130929;27;19924;-58
2022/12/19 02:51:26;;;;;;;;;;;;;;;17.25;38.54;101475.16;5150841;27;20361;-58
2022/12/19 02:53:51;;;;;;;;;;;;;;;17.24;38.48;101464.41;5150424;27;19933;-58
2022/12/19 02:56:37;;;;;;;;;;;;;;;17.25;38.53;101468.81;5150870;27;19927;-58
2022/12/19 02:59:22;;;;;;;;;;;;;;;17.24;38.38;101476.25;5134817;27;19931;-58
2022/12/19 03:01:52;;;;;;;;;;;;;;;17.24;38.42;101478.16;5134902;27;19927;-57
2022/12/19 03:04:38;;;;;;;;;;;;;;;17.23;38.28;101488.34;5131601;27;19927;-58
2022/12/19 03:09:45;;;;;;;;;;;;;;;17.25;38.54;101490.84;5190087;27;20333;-55
2022/12/19 03:12:13;;;;;;;;;;;;;;;17.25;38.57;101488.09;5171099;27;20351;-55
2022/12/19 03:14:42;;;;;;;;;;;;;;;17.24;38.37;101486.44;5189973;27;19954;-55
2022/12/19 03:17:08;;;;;;;;;;;;;;;17.24;38.49;101484.50;5189895;27;19930;-55
2022/12/19 03:19:34;;;;;;;;;;;;;;;17.25;38.19;101479.81;5189906;27;19975;-55
2022/12/19 03:22:00;;;;;;;;;;;;;;;17.23;38.56;101480.09;5189888;27;19966;-55
2022/12/19 03:24:26;;;;;;;;;;;;;;;17.23;38.32;101480.09;5189423;27;19945;-55
2022/12/19 03:27:07;;;;;;;;;;;;;;;17.25;38.58;101479.81;5189885;27;19922;-55
2022/12/19 03:29:34;;;;;;;;;;;;;;;17.24;38.32;101478.16;5189352;27;19966;-55
2022/12/19 03:32:02;;;;;;;;;;;;;;;17.25;38.56;101479.81;5159024;27;20342;-55
2022/12/19 03:34:28;;;;;;;;;;;;;;;17.25;38.18;101469.63;5170499;27;20374;-55
2022/12/19 03:36:55;;;;;;;;;;;;;;;17.25;38.58;101466.06;5170565;27;20259;-55
2022/12/19 03:39:20;;;;;;;;;;;;;;;17.24;38.40;101461.66;5170903;27;20294;-55
2022/12/19 03:44:32;;;;;;;;;;;;;;;17.24;38.35;101456.16;5173390;27;19937;-55
2022/12/19 03:47:18;;;;;;;;;;;;;;;17.25;38.50;101457.81;5189413;27;19981;-55
2022/12/19 03:49:44;;;;;;;;;;;;;;;17.24;38.26;101456.97;5167035;27;19945;-55
2022/12/19 03:52:11;;;;;;;;;;;;;;;17.23;38.57;101436.03;5159909;27;20271;-55
2022/12/19 03:54:38;;;;;;;;;;;;;;;17.23;38.37;101441.56;5170126;27;19984;-55
2022/12/19 03:57:06;;;;;;;;;;;;;;;17.23;38.55;101440.72;5170613;27;19930;-54
2022/12/19 03:59:33;;;;;;;;;;;;;;;17.22;38.32;101437.09;5170088;27;19927;-55
2022/12/19 04:01:59;;;;;;;;;;;;;;;17.24;38.51;101445.97;5176584;27;19965;-56
2022/12/19 04:04:25;;;;;;;;;;;;;;;17.24;38.30;101434.94;5149618;27;19938;-55
2022/12/19 04:06:50;;;;;;;;;;;;;;;17.24;38.35;101434.13;5168110;27;19923;-55
2022/12/19 04:09:16;;;;;;;;;;;;;;;17.24;38.35;101428.63;5167336;27;19934;-55
2022/12/19 04:11:51;;;;;;;;;;;;;;;17.23;38.50;101427.78;5167898;27;19938;-55
2022/12/19 04:14:18;;;;;;;;;;;;;;;17.23;38.50;101424.22;5149155;27;20330;-55
2022/12/19 04:16:54;;;;;;;;;;;;;;;17.23;38.28;101427.78;5168062;27;19950;-55
2022/12/19 04:19:22;;;;;;;;;;;;;;;17.23;38.57;101429.72;5145640;27;19959;-55
2022/12/19 04:21:49;;;;;;;;;;;;;;;17.24;38.38;101423.13;5154131;27;19935;-55
2022/12/19 04:24:18;;;;;;;;;;;;;;;17.23;38.46;101424.22;5153534;27;19930;-55
2022/12/19 04:26:45;;;;;;;;;;;;;;;17.24;38.48;101436.88;5153996;27;19923;-55
2022/12/19 04:29:10;;;;;;;;;;;;;;;17.22;38.17;101426.09;5134805;27;20370;-55
2022/12/19 04:31:36;;;;;;;;;;;;;;;17.22;38.50;101428.84;5142027;27;19923;-56
2022/12/19 04:34:01;;;;;;;;;;;;;;;17.23;38.32;101438.81;5153803;27;19945;-55
2022/12/19 04:36:27;;;;;;;;;;;;;;;17.23;38.34;101436.03;5153854;27;19927;-55
2022/12/19 04:38:53;;;;;;;;;;;;;;;17.23;38.43;101437.97;5153773;27;19949;-55
2022/12/19 04:41:18;;;;;;;;;;;;;;;17.22;38.27;101442.63;5153032;27;19931;-55
2022/12/19 04:43:44;;;;;;;;;;;;;;;17.22;38.46;101445.38;5145276;27;20291;-55
2022/12/19 04:46:09;;;;;;;;;;;;;;;17.22;38.38;101434.34;5133016;28;19923;-55
2022/12/19 04:48:35;;;;;;;;;;;;;;;17.22;38.30;101433.53;5132889;28;20501;-55
2022/12/19 04:51:01;;;;;;;;;;;;;;;17.22;38.29;101439.03;5149550;27;19923;-55
2022/12/19 04:53:26;;;;;;;;;;;;;;;17.21;38.09;101429.13;5134563;27;19927;-55
2022/12/19 04:56:00;;;;;;;;;;;;;;;17.22;38.41;101434.34;5153322;27;20709;-55
2022/12/19 04:58:26;;;;;;;;;;;;;;;17.22;38.34;101439.03;5153296;27;20366;-55
2022/12/19 05:00:51;;;;;;;;;;;;;;;17.23;38.17;101429.72;5142569;27;19970;-55
2022/12/19 05:03:17;;;;;;;;;;;;;;;17.21;38.42;101434.63;5152197;27;19945;-56
2022/12/19 05:05:42;;;;;;;;;;;;;;;17.21;38.08;101416.19;5153247;27;19991;-55
2022/12/19 05:08:08;;;;;;;;;;;;;;;17.21;38.25;101423.63;5153057;27;19923;-55
2022/12/19 05:10:35;;;;;;;;;;;;;;;17.21;38.25;101418.94;5153086;27;19931;-55
2022/12/19 05:13:00;;;;;;;;;;;;;;;17.22;38.34;101417.00;5152849;27;19931;-55
2022/12/19 05:15:26;;;;;;;;;;;;;;;17.22;38.16;101419.75;5153124;27;19923;-55
2022/12/19 05:17:51;;;;;;;;;;;;;;;17.21;38.28;101412.59;5153153;27;19927;-55
2022/12/19 05:20:17;;;;;;;;;;;;;;;17.21;38.17;101410.69;5153299;27;19927;-55
2022/12/19 05:22:42;;;;;;;;;;;;;;;17.21;38.41;101410.69;5152646;27;19927;-55
2022/12/19 05:25:08;;;;;;;;;;;;;;;17.21;38.19;101405.19;5152824;27;20397;-55
2022/12/19 05:27:33;;;;;;;;;;;;;;;17.21;38.24;101409.84;5153134;27;20055;-55
2022/12/19 05:30:00;;;;;;;;;;;;;;;17.21;38.26;101412.59;5149116;27;19930;-55
2022/12/19 05:32:28;;;;;;;;;;;;;;;17.20;38.28;101413.69;5143171;27;19958;-55
2022/12/19 05:34:53;;;;;;;;;;;;;;;17.20;38.38;101419.22;5134104;27;19966;-55
2022/12/19 05:37:19;;;;;;;;;;;;;;;17.21;38.32;101420.88;5152886;27;19923;-55
2022/12/19 05:39:45;;;;;;;;;;;;;;;17.20;38.23;101411.78;5152586;27;20294;-55
2022/12/19 05:42:10;;;;;;;;;;;;;;;17.20;38.27;101432.97;5152533;27;19923;-56
2022/12/19 05:44:38;;;;;;;;;;;;;;;17.21;38.28;101423.63;5134612;27;19931;-55
2022/12/19 05:47:03;;;;;;;;;;;;;;;17.20;38.44;101413.69;5131729;28;19923;-55
2022/12/19 05:49:29;;;;;;;;;;;;;;;17.21;38.37;101420.88;5135438;27;20359;-55
2022/12/19 05:51:54;;;;;;;;;;;;;;;17.20;38.27;101427.47;5152621;27;19946;-55
2022/12/19 05:54:20;;;;;;;;;;;;;;;17.19;38.20;101428.56;5151966;27;19967;-55
2022/12/19 05:56:45;;;;;;;;;;;;;;;17.19;38.13;101423.88;5152426;27;20371;-55
2022/12/19 05:59:11;;;;;;;;;;;;;;;17.19;38.23;101414.78;5151453;27;19947;-55
2022/12/19 06:01:36;;;;;;;;;;;;;;;17.19;38.42;101412.88;5127141;27;20393;-56
2022/12/19 06:04:03;;;;;;;;;;;;;;;17.20;38.45;101409.03;5138061;27;19927;-55
2022/12/19 06:06:28;;;;;;;;;;;;;;;17.18;38.26;101411.19;5128692;28;20012;-55
2022/12/19 06:08:54;;;;;;;;;;;;;;;17.20;38.27;101413.69;5130229;28;19924;-55
2022/12/19 06:11:20;;;;;;;;;;;;;;;17.20;38.26;101419.22;5133805;27;19935;-55
2022/12/19 06:13:45;;;;;;;;;;;;;;;17.19;38.14;101410.13;5152160;27;19930;-55
2022/12/19 06:16:12;;;;;;;;;;;;;;;17.20;38.08;101413.69;5152218;27;19930;-55
2022/12/19 06:18:38;;;;;;;;;;;;;;;17.19;38.35;101410.13;5151680;27;19935;-56
2022/12/19 06:21:10;;;;;;;;;;;;;;;17.19;38.08;101409.28;5117681;27;19924;-55
2022/12/19 06:23:36;;;;;;;;;;;;;;;17.19;38.32;101407.38;5151584;27;19974;-55
2022/12/19 06:26:02;;;;;;;;;;;;;;;17.19;38.26;101414.78;5136227;27;19928;-55
2022/12/19 06:28:28;;;;;;;;;;;;;;;17.19;38.21;101407.38;5110467;28;20400;-55
2022/12/19 06:30:54;;;;;;;;;;;;;;;17.18;38.25;101411.19;5132245;27;19959;-55
2022/12/19 06:33:20;;;;;;;;;;;;;;;17.18;38.46;101408.44;5144637;27;19930;-55
2022/12/19 06:35:45;;;;;;;;;;;;;;;17.18;38.33;101411.19;5121399;28;20411;-56
2022/12/19 06:38:11;;;;;;;;;;;;;;;17.18;38.20;101413.94;5124460;28;19923;-56
2022/12/19 06:43:26;;;;;;;;;;;;;;;17.18;38.36;101411.19;5128587;27;20007;-56
2022/12/19 06:45:52;;;;;;;;;;;;;;;17.19;38.23;101412.03;5149866;27;19924;-56
2022/12/19 06:48:17;;;;;;;;;;;;;;;17.27;38.89;101408.81;5126597;27;19935;-56
2022/12/19 06:50:43;;;;;;;;;;;;;;;17.27;39.41;101411.56;5123286;28;19931;-56
2022/12/19 06:53:09;;;;;;;;;;;;;;;17.26;39.74;101412.66;5123167;27;20310;-56
2022/12/19 06:55:35;;;;;;;;;;;;;;;17.25;39.60;101408.25;5121866;27;19972;-56
2022/12/19 06:58:01;;;;;;;;;;;;;;;17.24;39.60;101401.91;5115242;27;19931;-56
2022/12/19 07:00:27;;;;;;;;;;;;;;;17.24;39.44;101412.94;5124482;27;19934;-56
2022/12/19 07:02:52;;;;;;;;;;;;;;;17.24;39.43;101403.84;5118750;27;19934;-56
2022/12/19 07:05:18;;;;;;;;;;;;;;;17.24;39.28;101404.66;5120886;27;19931;-52
2022/12/19 07:07:43;;;;;;;;;;;;;;;16.89;39.47;101410.53;5119509;27;19935;-61
2022/12/19 07:10:09;;;;;;;;;;;;;;;17.05;40.80;101404.16;5126334;27;19932;-57
2022/12/19 07:12:35;;;;;;;;;;;;;;;17.17;40.80;101405.94;5129598;27;19934;-58
2022/12/19 07:15:00;;;;;;;;;;;;;;;17.20;40.97;101403.53;5116690;27;20003;-58
2022/12/19 07:17:26;;;;;;;;;;;;;;;17.22;40.42;101401.31;5124102;27;20418;-57
2022/12/19 07:19:52;;;;;;;;;;;;;;;17.24;40.50;101412.09;5139505;27;20295;-57
2022/12/19 07:22:17;;;;;;;;;;;;;;;17.25;40.59;101414.59;5136880;27;19927;-57
2022/12/19 07:24:43;;;;;;;;;;;;;;;17.27;40.06;101417.94;5136651;27;19934;-57
2022/12/19 07:27:09;;;;;;;;;;;;;;;17.27;39.90;101415.19;5118319;27;20290;-57
2022/12/19 07:29:34;;;;;;;;;;;;;;;17.27;39.85;101422.59;5127186;27;21270;-57
2022/12/19 07:32:00;;;;;;;;;;;;;;;17.29;40.00;101417.66;5125953;27;19923;-57
2022/12/19 07:34:26;;;;;;;;;;;;;;;17.28;39.88;101422.34;5119228;28;19927;-57
2022/12/19 07:36:51;;;;;;;;;;;;;;;17.28;39.93;101421.50;5104865;28;19931;-57
2022/12/19 07:39:17;;;;;;;;;;;;;;;17.30;39.87;101424.84;5121819;27;19973;-57
2022/12/19 07:41:42;;;;;;;;;;;;;;;17.30;39.73;101428.41;5128296;27;19935;-57
2022/12/19 07:44:08;;;;;;;;;;;;;;;17.30;39.70;101424.84;5130287;27;20294;-57
2022/12/19 07:46:34;;;;;;;;;;;;;;;17.30;39.61;101420.16;5122997;27;19923;-59
2022/12/19 07:48:59;;;;;;;;;;;;;;;17.32;39.76;101419.91;5121717;27;19971;-56
2022/12/19 07:51:25;;;;;;;;;;;;;;;17.32;39.84;101428.19;5116482;27;19939;-57
2022/12/19 07:53:51;;;;;;;;;;;;;;;17.32;39.43;101419.09;5118497;27;19934;-58
2022/12/19 07:56:16;;;;;;;;;;;;;;;17.33;39.56;101420.75;5118416;27;19942;-57
2022/12/19 07:58:43;;;;;;;;;;;;;;;17.33;39.58;101424.31;5118982;27;19935;-58
2022/12/19 08:01:09;;;;;;;;;;;;;;;17.33;39.60;101429.00;5106873;27;19962;-59
2022/12/19 08:03:34;;;;;;;;;;;;;;;17.34;39.66;101419.66;5102075;27;19938;-58
2022/12/19 08:06:00;;;;;;;;;;;;;;;17.34;39.48;101425.97;5112793;27;19923;-58
2022/12/19 08:08:27;;;;;;;;;;;;;;;17.34;39.59;101416.91;5084043;28;20295;-57
2022/12/19 08:10:52;;;;;;;;;;;;;;;17.35;39.41;101432.31;5112797;27;19990;-57
2022/12/19 08:13:18;;;;;;;;;;;;;;;17.35;39.23;101427.63;5111742;27;19959;-57
2022/12/19 08:15:43;;;;;;;;;;;;;;;17.35;39.54;101421.31;5115704;27;19934;-57
2022/12/19 08:18:09;;;;;;;;;;;;;;;17.34;39.53;101431.50;5109540;27;20375;-56
2022/12/19 08:20:34;;;;;;;;;;;;;;;17.35;39.56;101429.56;5117221;27;19931;-58
2022/12/19 08:23:00;;;;;;;;;;;;;;;17.35;39.56;101429.56;5115058;27;19924;-57
2022/12/19 08:25:26;;;;;;;;;;;;;;;17.35;39.45;101435.06;5113509;27;19935;-57
2022/12/19 08:27:51;;;;;;;;;;;;;;;17.34;39.35;101431.50;5117290;27;19928;-58
2022/12/19 08:30:17;;;;;;;;;;;;;;;17.33;39.33;101427.09;5112050;27;19928;-57
2022/12/19 08:32:44;;;;;;;;;;;;;;;17.35;39.52;101444.16;5114990;27;19970;-58
2022/12/19 08:35:09;;;;;;;;;;;;;;;17.35;39.49;101440.56;5113031;27;19971;-58
2022/12/19 08:37:37;;;;;;;;;;;;;;;17.34;39.62;101442.50;5116364;28;19927;-58
2022/12/19 08:40:03;;;;;;;;;;;;;;;17.35;39.51;101440.56;5119508;27;19927;-58
2022/12/19 08:42:28;;;;;;;;;;;;;;;17.35;39.65;101438.66;5117504;27;20286;-58
2022/12/19 08:44:54;;;;;;;;;;;;;;;17.34;39.58;101438.91;5119974;27;19931;-57
2022/12/19 08:47:19;;;;;;;;;;;;;;;17.33;39.51;101435.34;5114732;27;20478;-57
2022/12/19 08:49:45;;;;;;;;;;;;;;;17.33;39.50;101432.59;5120406;27;20699;-57
2022/12/19 08:52:11;;;;;;;;;;;;;;;17.34;39.66;101425.97;5125039;27;19927;-57
2022/12/19 08:54:36;;;;;;;;;;;;;;;17.33;39.37;101431.75;5117434;27;19923;-57
2022/12/19 08:57:02;;;;;;;;;;;;;;;17.34;39.42;101428.75;5115938;27;19984;-58
2022/12/19 08:59:27;;;;;;;;;;;;;;;17.33;39.46;101418.81;5120256;27;19927;-57
2022/12/19 09:01:58;;;;;;;;;;;;;;;17.34;39.62;101428.75;5121230;27;19950;-57
2022/12/19 09:04:24;;;;;;;;;;;;;;;17.34;39.49;101433.41;5097208;27;20745;-57
2022/12/19 09:07:10;;;;;;;;;;;;;;;17.35;39.46;101429.56;5107114;27;19954;-57
2022/12/19 09:09:35;;;;;;;;;;;;;;;17.33;39.51;101420.75;5105043;27;19923;-57
2022/12/19 09:12:01;;;;;;;;;;;;;;;17.32;39.49;101425.41;5112388;27;19931;-57
2022/12/19 09:14:31;;;;;;;;;;;;;;;17.34;39.44;101420.47;5108334;28;19927;-57
2022/12/19 09:16:56;;;;;;;;;;;;;;;17.33;39.46;101418.00;5110541;27;20402;-57
2022/12/19 09:19:24;;;;;;;;;;;;;;;17.31;39.50;101418.22;5115023;27;19988;-57
2022/12/19 09:21:49;;;;;;;;;;;;;;;17.33;39.52;101426.25;5117047;27;19924;-58
2022/12/19 09:24:15;;;;;;;;;;;;;;;17.33;39.60;101423.50;5114884;27;19932;-51
2022/12/19 09:26:41;;;;;;;;;;;;;;;17.34;40.35;101427.91;5116519;27;19923;-59
2022/12/19 09:29:07;;;;;;;;;;;;;;;17.34;40.27;101423.22;5115581;27;19930;-59
2022/12/19 09:31:47;;;;;;;;;;;;;;;17.32;40.37;101419.91;5099091;27;19934;-58
2022/12/19 09:34:12;;;;;;;;;;;;;;;17.34;40.21;101423.22;5120930;27;19931;-58
2022/12/19 09:36:38;;;;;;;;;;;;;;;17.33;40.17;101421.56;5110635;27;20514;-57
2022/12/19 09:39:03;;;;;;;;;;;;;;;17.32;40.18;101422.66;5112408;27;19980;-57
2022/12/19 09:41:50;;;;;;;;;;;;;;;17.33;40.21;101420.75;5115260;27;19923;-58
2022/12/19 09:44:35;;;;;;;;;;;;;;;17.34;40.02;101423.22;5106561;27;19933;-58
2022/12/19 09:47:02;;;;;;;;;;;;;;;17.34;40.07;101436.16;5093215;28;20652;-58
2022/12/19 09:49:28;;;;;;;;;;;;;;;17.34;40.15;101425.97;5084587;27;20124;-51
2022/12/19 09:51:56;;;;;;;;;;;;;;;17.36;40.04;101432.09;5116818;27;19981;-58
2022/12/19 09:54:25;;;;;;;;;;;;;;;17.38;40.18;101431.81;5112322;27;19927;-59
2022/12/19 09:56:52;;;;;;;;;;;;;;;17.38;40.17;101438.16;5095722;27;20666;-58
2022/12/19 09:59:23;;;;;;;;;;;;;;;17.38;40.08;101434.56;5112159;27;19988;-58
2022/12/19 10:01:59;;;;;;;;;;;;;;;17.37;40.18;101449.44;5116693;27;20051;-57
2022/12/19 10:04:25;;;;;;;;;;;;;;;17.38;40.15;101449.16;5112903;27;20367;-58
2022/12/19 10:06:51;;;;;;;;;;;;;;;17.38;40.10;101443.66;5119049;27;19923;-58
2022/12/19 10:09:37;;;;;;;;;;;;;;;17.38;40.09;101448.34;5103121;27;19962;-58
2022/12/19 10:12:42;;;;;;;;;;;;;;;17.37;40.17;101442.00;5101219;28;19936;-58
2022/12/19 10:15:38;;;;;;;;;;;;;;;17.39;40.13;101445.31;5085156;27;19977;-57
2022/12/19 10:18:10;;;;;;;;;;;;;;;17.39;39.94;101448.06;5083691;27;19931;-58
2022/12/19 10:20:36;;;;;;;;;;;;;;;17.40;39.98;101443.38;5103305;27;20914;-58
2022/12/19 10:23:09;;;;;;;;;;;;;;;17.40;40.10;101446.13;5100080;27;19924;-58
2022/12/19 10:25:54;;;;;;;;;;;;;;;17.40;40.03;101438.75;5108260;27;20145;-59
2022/12/19 10:28:40;;;;;;;;;;;;;;;17.41;40.19;101436.81;5095062;27;20021;-58
2022/12/19 10:31:10;;;;;;;;;;;;;;;17.42;40.52;101436.56;5094762;27;19927;-60
2022/12/19 10:34:05;;;;;;;;;;;;;;;17.52;40.99;101427.56;5086713;27;20406;-54
2022/12/19 10:36:33;;;;;;;;;;;;;;;17.48;41.52;101429.16;5085258;27;20313;-54
2022/12/19 10:39:38;;;;;;;;;;;;;;;17.55;42.16;101421.56;5088129;27;19977;-59
2022/12/19 10:42:24;;;;;;;;;;;;;;;17.51;41.56;101417.66;5083223;27;19939;-58
2022/12/19 10:44:49;;;;;;;;;;;;;;;17.49;41.67;101412.41;5085947;27;19930;-58
2022/12/19 10:47:15;;;;;;;;;;;;;;;17.48;41.56;101405.22;5105968;27;19923;-58
2022/12/19 10:49:41;;;;;;;;;;;;;;;17.42;42.83;101408.19;5090076;28;20022;-58
2022/12/19 10:52:07;;;;;;;;;;;;;;;17.48;42.01;101410.72;5110109;27;19932;-58
2022/12/19 10:54:38;;;;;;;;;;;;;;;17.47;41.86;101414.56;5111236;27;20207;-58
2022/12/19 10:57:24;;;;;;;;;;;;;;;17.47;41.69;101409.06;5115053;27;20394;-58
2022/12/19 10:59:58;;;;;;;;;;;;;;;17.48;41.65;101405.22;5095080;27;19967;-58
2022/12/19 11:02:41;;;;;;;;;;;;;;;17.49;41.54;101403.31;5117220;27;19931;-58
2022/12/19 11:05:26;;;;;;;;;;;;;;;17.48;41.55;101401.63;5097877;28;19923;-58
2022/12/19 11:10:43;;;;;;;;;;;;;;;17.49;41.34;101403.31;5151224;27;20310;-55
2022/12/19 11:13:38;;;;;;;;;;;;;;;17.48;41.31;101402.47;5124519;27;20284;-55
2022/12/19 11:16:33;;;;;;;;;;;;;;;17.48;41.10;101402.47;5127372;27;19935;-56
2022/12/19 11:19:20;;;;;;;;;;;;;;;17.50;41.03;101396.72;5120233;27;20305;-56
2022/12/19 11:22:06;;;;;;;;;;;;;;;17.49;41.12;101395.91;5135753;27;19927;-55
2022/12/19 11:24:52;;;;;;;;;;;;;;;17.50;41.18;101389.28;5133398;27;19954;-56
2022/12/19 11:27:41;;;;;;;;;;;;;;;17.50;41.04;101393.97;5128833;27;19927;-55
2022/12/19 11:30:27;;;;;;;;;;;;;;;17.49;41.04;101390.38;5140816;27;20318;-55
2022/12/19 11:33:14;;;;;;;;;;;;;;;17.49;40.98;101395.91;5127367;27;19931;-55
2022/12/19 11:35:57;;;;;;;;;;;;;;;17.50;40.95;101400.31;5154570;27;19923;-54
2022/12/19 11:38:42;;;;;;;;;;;;;;;17.50;40.85;101397.56;5133475;27;20057;-56
2022/12/19 11:41:10;;;;;;;;;;;;;;;17.50;41.02;101392.03;5141664;27;19966;-55
2022/12/19 11:43:39;;;;;;;;;;;;;;;17.51;40.69;101390.13;5152391;27;19965;-56
2022/12/19 11:46:31;;;;;;;;;;;;;;;17.51;40.90;101392.88;5147549;27;20403;-55
2022/12/19 11:48:58;;;;;;;;;;;;;;;17.51;40.92;101393.69;5128783;27;19930;-56
2022/12/19 11:51:27;;;;;;;;;;;;;;;17.52;40.93;101391.78;5144422;27;19992;-55
2022/12/19 11:54:13;;;;;;;;;;;;;;;17.52;40.95;101389.03;5146262;27;19934;-56
2022/12/19 11:56:38;;;;;;;;;;;;;;;17.56;41.28;101392.91;5134505;27;20331;-56
2022/12/19 11:59:24;;;;;;;;;;;;;;;17.56;41.18;101390.16;5132295;27;20421;-55
2022/12/19 12:01:54;;;;;;;;;;;;;;;17.56;41.24;101393.75;5135864;27;19951;-56
2022/12/19 12:04:30;;;;;;;;;;;;;;;17.54;41.21;101379.41;5146894;27;20371;-56
2022/12/19 12:06:56;;;;;;;;;;;;;;;17.54;41.20;101389.59;5155101;27;19931;-55
2022/12/19 12:09:45;;;;;;;;;;;;;;;17.54;41.15;101390.44;5161903;27;19979;-54
2022/12/19 12:12:31;;;;;;;;;;;;;;;17.54;41.26;101384.09;5127683;27;21382;-58
2022/12/19 12:15:34;;;;;;;;;;;;;;;17.53;41.19;101375.00;5135554;27;20482;-58
2022/12/19 12:18:25;;;;;;;;;;;;;;;17.54;41.11;101360.16;5142935;27;19938;-59
2022/12/19 12:21:21;;;;;;;;;;;;;;;17.54;41.17;101359.31;5131262;27;20310;-58
2022/12/19 12:24:13;;;;;;;;;;;;;;;17.54;41.45;101367.56;5129965;27;19927;-66
2022/12/19 12:27:05;;;;;;;;;;;;;;;17.62;41.35;101347.00;5122703;27;20282;-58
2022/12/19 12:29:54;;;;;;;;;;;;;;;17.62;41.81;101338.75;5122171;27;19934;-47
2022/12/19 12:35:23;;;;;;;;;;;;;;;17.65;42.44;101346.47;5143717;27;19925;-55
2022/12/19 12:38:29;;;;;;;;;;;;;;;17.63;42.51;101332.13;5129982;27;19931;-55
2022/12/19 12:41:16;;;;;;;;;;;;;;;17.62;42.46;101328.56;5148036;27;20313;-56
2022/12/19 12:43:47;;;;;;;;;;;;;;;17.62;42.32;101319.47;5132269;27;19988;-56
2022/12/19 12:46:14;;;;;;;;;;;;;;;17.62;42.25;101327.72;5148063;27;20328;-55
2022/12/19 12:48:49;;;;;;;;;;;;;;;17.59;42.47;101331.81;5150725;27;19923;-55
2022/12/19 12:51:14;;;;;;;;;;;;;;;17.63;42.37;101332.13;5132209;27;19927;-55
2022/12/19 12:53:42;;;;;;;;;;;;;;;17.63;42.14;101334.91;5146726;27;19923;-55
2022/12/19 12:56:08;;;;;;;;;;;;;;;17.63;42.17;101343.16;5130646;27;20394;-55
2022/12/19 12:58:51;;;;;;;;;;;;;;;17.62;42.23;101336.81;5150083;27;19927;-55
2022/12/19 13:04:02;;;;;;;;;;;;;;;17.65;42.30;101332.69;5140145;27;19934;-56
2022/12/19 13:06:32;;;;;;;;;;;;;;;17.70;41.91;101335.50;5114117;27;20484;-55